createdAt,value
2023-05-23T00:02:15.660Z,15.77
2023-05-23T00:04:43.003Z,15.63
2023-05-23T00:07:10.208Z,15.70
2023-05-23T00:09:36.732Z,15.62
2023-05-23T00:12:03.286Z,15.51
2023-05-23T00:14:33.874Z,15.59
2023-05-23T00:17:01.535Z,15.42
2023-05-23T00:19:28.419Z,15.33
2023-05-23T00:21:58.522Z,15.26
2023-05-23T00:24:25.393Z,14.97
2023-05-23T00:26:52.040Z,14.98
2023-05-23T00:29:18.563Z,14.82
2023-05-23T00:31:46.796Z,14.80
2023-05-23T00:34:15.471Z,14.88
2023-05-23T00:36:43.625Z,14.93
2023-05-23T00:39:19.146Z,14.85
2023-05-23T00:41:51.429Z,14.84
2023-05-23T00:44:20.289Z,14.78
2023-05-23T00:46:52.343Z,14.68
2023-05-23T00:49:20.426Z,14.69
2023-05-23T00:51:49.425Z,14.85
2023-05-23T00:54:21.217Z,14.71
2023-05-23T00:56:48.670Z,14.76
2023-05-23T00:59:16.051Z,14.62
2023-05-23T01:01:46.617Z,14.58
2023-05-23T01:04:14.281Z,14.50
2023-05-23T01:06:40.738Z,14.48
2023-05-23T01:09:08.075Z,14.49
2023-05-23T01:11:58.697Z,14.40
2023-05-23T01:14:42.406Z,14.39
2023-05-23T01:17:18.642Z,14.42
2023-05-23T01:20:09.073Z,14.34
2023-05-23T01:23:00.290Z,14.30
2023-05-23T01:25:50.305Z,14.25
2023-05-23T01:28:20.416Z,14.33
2023-05-23T01:30:51.959Z,14.14
2023-05-23T01:33:20.759Z,14.20
2023-05-23T01:35:47.590Z,14.21
2023-05-23T01:38:14.781Z,14.25
2023-05-23T01:40:41.211Z,14.26
2023-05-23T01:43:10.531Z,14.11
2023-05-23T01:45:37.335Z,14.09
2023-05-23T01:48:06.114Z,13.98
2023-05-23T01:50:33.385Z,14.00
2023-05-23T01:53:00.907Z,13.95
2023-05-23T01:55:28.375Z,13.93
2023-05-23T01:57:59.503Z,13.90
2023-05-23T02:00:26.161Z,13.86
2023-05-23T02:02:52.991Z,13.73
2023-05-23T02:05:19.582Z,13.76
2023-05-23T02:07:46.342Z,13.58
2023-05-23T02:10:12.816Z,13.59
2023-05-23T02:12:39.523Z,13.59
2023-05-23T02:15:07.678Z,13.54
2023-05-23T02:17:34.266Z,13.48
2023-05-23T02:20:00.766Z,13.44
2023-05-23T02:22:27.297Z,13.47
2023-05-23T02:24:53.975Z,13.58
2023-05-23T02:27:20.680Z,13.64
2023-05-23T02:29:47.504Z,13.58
2023-05-23T02:32:14.069Z,13.53
2023-05-23T02:34:40.878Z,13.52
2023-05-23T02:37:07.933Z,13.45
2023-05-23T02:39:36.728Z,13.45
2023-05-23T02:42:04.712Z,13.45
2023-05-23T02:44:32.005Z,13.49
2023-05-23T02:46:58.491Z,13.56
2023-05-23T02:49:25.061Z,13.54
2023-05-23T02:51:51.875Z,13.50
2023-05-23T02:54:18.437Z,13.47
2023-05-23T02:56:46.582Z,13.43
2023-05-23T02:59:13.606Z,13.46
2023-05-23T03:01:40.095Z,13.55
2023-05-23T03:04:07.847Z,13.48
2023-05-23T03:06:37.058Z,13.38
2023-05-23T03:09:03.996Z,13.41
2023-05-23T03:11:30.717Z,13.45
2023-05-23T03:13:59.320Z,13.50
2023-05-23T03:16:26.104Z,13.50
2023-05-23T03:18:53.025Z,13.60
2023-05-23T03:21:19.673Z,13.58
2023-05-23T03:23:46.500Z,13.49
2023-05-23T03:26:13.099Z,13.46
2023-05-23T03:28:39.754Z,13.50
2023-05-23T03:31:06.376Z,13.45
2023-05-23T03:33:33.574Z,13.46
2023-05-23T03:36:00.314Z,13.50
2023-05-23T03:38:28.162Z,13.40
2023-05-23T03:40:54.786Z,13.36
2023-05-23T03:43:21.786Z,13.30
2023-05-23T03:45:48.940Z,13.32
2023-05-23T03:48:17.648Z,13.34
2023-05-23T03:50:44.791Z,13.31
2023-05-23T03:53:12.262Z,13.34
2023-05-23T03:55:39.491Z,13.38
2023-05-23T03:58:06.419Z,13.34
2023-05-23T04:00:33.249Z,13.30
2023-05-23T04:03:02.214Z,13.38
2023-05-23T04:05:29.854Z,13.41
2023-05-23T04:07:57.172Z,13.26
2023-05-23T04:10:24.186Z,13.30
2023-05-23T04:12:51.863Z,13.25
2023-05-23T04:15:22.433Z,13.32
2023-05-23T04:17:53.227Z,13.37
2023-05-23T04:20:20.407Z,13.38
2023-05-23T04:22:47.448Z,13.42
2023-05-23T04:25:14.305Z,13.29
2023-05-23T04:27:48.972Z,13.26
2023-05-23T04:30:17.786Z,13.26
2023-05-23T04:32:44.688Z,13.38
2023-05-23T04:35:14.270Z,13.24
2023-05-23T04:37:42.420Z,13.18
2023-05-23T04:40:09.793Z,13.25
2023-05-23T04:42:46.699Z,13.22
2023-05-23T04:45:24.533Z,13.12
2023-05-23T04:47:59.434Z,13.10
2023-05-23T04:50:40.512Z,13.10
2023-05-23T04:53:07.017Z,13.28
2023-05-23T04:55:34.390Z,13.16
2023-05-23T04:58:01.296Z,13.08
2023-05-23T05:00:28.247Z,13.14
2023-05-23T05:02:54.785Z,13.19
2023-05-23T05:05:24.949Z,13.26
2023-05-23T05:07:51.804Z,13.25
2023-05-23T05:10:18.325Z,13.21
2023-05-23T05:12:46.899Z,13.21
2023-05-23T05:15:14.177Z,13.11
2023-05-23T05:17:43.970Z,13.07
2023-05-23T05:20:12.662Z,13.09
2023-05-23T05:22:40.457Z,13.19
2023-05-23T05:25:08.306Z,13.06
2023-05-23T05:27:35.275Z,13.09
2023-05-23T05:30:07.636Z,13.15
2023-05-23T05:32:46.353Z,13.25
2023-05-23T05:35:16.861Z,13.16
2023-05-23T05:37:44.866Z,13.25
2023-05-23T05:40:12.580Z,13.19
2023-05-23T05:42:42.056Z,13.14
2023-05-23T05:45:11.462Z,13.25
2023-05-23T05:47:39.313Z,13.19
2023-05-23T05:50:08.441Z,13.29
2023-05-23T05:52:39.746Z,13.29
2023-05-23T05:55:08.154Z,13.33
2023-05-23T05:57:38.539Z,13.33
2023-05-23T06:00:14.991Z,13.30
2023-05-23T06:02:54.935Z,13.25
2023-05-23T06:05:40.396Z,13.21
2023-05-23T06:08:07.486Z,13.23
2023-05-23T06:10:34.279Z,13.26
2023-05-23T06:13:02.609Z,13.29
2023-05-23T06:15:30.402Z,13.38
2023-05-23T06:17:56.912Z,13.34
2023-05-23T06:20:24.284Z,13.24
2023-05-23T06:22:51.902Z,13.18
2023-05-23T06:25:18.511Z,13.18
2023-05-23T06:27:47.723Z,13.12
2023-05-23T06:30:14.766Z,13.11
2023-05-23T06:32:41.390Z,13.07
2023-05-23T06:35:08.330Z,13.05
2023-05-23T06:37:35.099Z,12.99
2023-05-23T06:40:02.444Z,12.96
2023-05-23T06:42:29.289Z,12.94
2023-05-23T06:45:04.536Z,12.88
2023-05-23T06:47:32.247Z,12.98
2023-05-23T06:49:58.842Z,12.95
2023-05-23T06:52:25.478Z,13.06
2023-05-23T06:54:52.476Z,13.03
2023-05-23T06:57:20.674Z,13.01
2023-05-23T06:59:47.718Z,13.04
2023-05-23T07:02:14.987Z,12.98
2023-05-23T07:04:41.459Z,12.93
2023-05-23T07:07:15.053Z,12.93
2023-05-23T07:09:42.950Z,12.92
2023-05-23T07:12:14.178Z,12.89
2023-05-23T07:14:43.074Z,12.77
2023-05-23T07:17:10.564Z,12.81
2023-05-23T07:19:38.513Z,12.86
2023-05-23T07:22:05.879Z,12.92
2023-05-23T07:24:34.539Z,12.78
2023-05-23T07:27:01.208Z,12.75
2023-05-23T07:29:27.777Z,12.68
2023-05-23T07:31:54.439Z,12.72
2023-05-23T07:34:22.641Z,12.57
2023-05-23T07:36:58.495Z,12.64
2023-05-23T07:39:28.021Z,12.55
2023-05-23T07:41:56.242Z,12.57
2023-05-23T07:44:25.185Z,12.61
2023-05-23T07:46:53.439Z,12.63
2023-05-23T07:49:21.701Z,12.75
2023-05-23T07:51:48.426Z,12.69
2023-05-23T07:54:16.501Z,12.66
2023-05-23T07:56:43.729Z,12.64
2023-05-23T07:59:10.425Z,12.56
2023-05-23T08:01:37.373Z,12.42
2023-05-23T08:04:06.952Z,12.29
2023-05-23T08:07:03.660Z,12.16
2023-05-23T08:09:40.193Z,12.14
2023-05-23T08:12:10.046Z,12.14
2023-05-23T08:14:49.690Z,12.15
2023-05-23T08:17:42.301Z,12.17
2023-05-23T08:20:10.154Z,12.06
2023-05-23T08:22:37.491Z,12.00
2023-05-23T08:25:05.856Z,12.01
2023-05-23T08:27:36.042Z,11.91
2023-05-23T08:30:10.030Z,11.96
2023-05-23T08:32:37.612Z,11.88
2023-05-23T08:35:05.228Z,11.87
2023-05-23T08:37:32.570Z,11.86
2023-05-23T08:39:59.055Z,11.85
2023-05-23T08:42:38.617Z,11.84
2023-05-23T08:45:07.769Z,11.87
2023-05-23T08:47:38.831Z,11.94
2023-05-23T08:50:12.285Z,11.80
2023-05-23T08:52:54.329Z,11.64
2023-05-23T08:55:23.978Z,11.58
2023-05-23T08:57:52.574Z,11.53
2023-05-23T09:00:37.953Z,11.53
2023-05-23T09:03:05.033Z,11.41
2023-05-23T09:06:01.758Z,11.34
2023-05-23T09:08:29.650Z,11.29
2023-05-23T09:10:58.826Z,11.40
2023-05-23T09:13:28.564Z,11.41
2023-05-23T09:16:03.059Z,11.41
2023-05-23T09:18:35.965Z,11.31
2023-05-23T09:21:03.978Z,11.18
2023-05-23T09:23:32.923Z,11.25
2023-05-23T09:26:04.209Z,11.10
2023-05-23T09:28:33.033Z,11.23
2023-05-23T09:31:10.457Z,11.27
2023-05-23T09:33:48.292Z,11.32
2023-05-23T09:36:18.966Z,11.42
2023-05-23T09:38:48.866Z,11.44
2023-05-23T09:41:15.694Z,11.50
2023-05-23T09:43:52.833Z,11.45
2023-05-23T09:46:22.281Z,11.45
2023-05-23T09:48:51.972Z,11.43
2023-05-23T09:51:21.894Z,11.27
2023-05-23T09:53:49.074Z,11.16
2023-05-23T09:56:17.262Z,10.97
2023-05-23T09:58:48.824Z,11.06
2023-05-23T10:01:16.168Z,10.98
2023-05-23T10:04:00.019Z,11.03
2023-05-23T10:06:55.262Z,11.12
2023-05-23T10:09:55.849Z,11.15
2023-05-23T10:12:42.641Z,11.19
2023-05-23T10:15:09.902Z,11.25
2023-05-23T10:18:14.292Z,11.30
2023-05-23T10:20:47.938Z,11.22
2023-05-23T10:23:15.648Z,11.30
2023-05-23T10:25:44.448Z,11.20
2023-05-23T10:28:12.511Z,11.20
2023-05-23T10:30:39.971Z,11.20
2023-05-23T10:33:08.609Z,11.34
2023-05-23T10:35:56.479Z,11.32
2023-05-23T10:38:26.163Z,11.39
2023-05-23T10:41:04.779Z,11.26
2023-05-23T10:43:40.613Z,11.32
2023-05-23T10:46:13.151Z,11.26
2023-05-23T10:48:44.586Z,11.24
2023-05-23T10:51:14.362Z,11.44
2023-05-23T10:53:43.379Z,11.45
2023-05-23T10:56:19.076Z,11.52
2023-05-23T10:58:45.721Z,11.42
2023-05-23T11:01:18.010Z,11.42
2023-05-23T11:03:48.775Z,11.32
2023-05-23T11:06:42.814Z,11.10
2023-05-23T11:09:19.777Z,10.99
2023-05-23T11:11:49.092Z,11.03
2023-05-23T11:14:15.819Z,11.13
2023-05-23T11:16:43.692Z,11.15
2023-05-23T11:19:19.059Z,11.12
2023-05-23T11:21:50.262Z,11.15
2023-05-23T11:24:19.379Z,11.16
2023-05-23T11:27:00.139Z,11.21
2023-05-23T11:29:31.398Z,11.14
2023-05-23T11:31:58.232Z,11.24
2023-05-23T11:34:27.802Z,11.38
2023-05-23T11:36:57.653Z,11.70
2023-05-23T11:39:24.280Z,11.85
2023-05-23T11:41:59.606Z,12.14
2023-05-23T11:44:26.210Z,12.45
2023-05-23T11:47:06.916Z,12.60
2023-05-23T11:49:40.464Z,12.48
2023-05-23T11:52:07.326Z,12.36
2023-05-23T11:54:33.810Z,12.31
2023-05-23T11:57:01.678Z,12.32
2023-05-23T11:59:28.642Z,12.33
2023-05-23T12:01:56.151Z,12.33
2023-05-23T12:04:23.155Z,12.43
2023-05-23T12:06:50.612Z,12.32
2023-05-23T12:09:17.448Z,12.41
2023-05-23T12:11:46.116Z,12.29
2023-05-23T12:14:17.256Z,12.30
2023-05-23T12:16:47.741Z,12.53
2023-05-23T12:19:17.049Z,12.60
2023-05-23T12:21:46.163Z,12.69
2023-05-23T12:24:20.447Z,12.91
2023-05-23T12:27:00.210Z,12.95
2023-05-23T12:29:35.554Z,13.03
2023-05-23T12:32:05.543Z,13.15
2023-05-23T12:34:32.169Z,13.41
2023-05-23T12:37:14.958Z,13.47
2023-05-23T12:39:45.798Z,13.54
2023-05-23T12:42:12.430Z,13.57
2023-05-23T12:44:41.425Z,13.80
2023-05-23T12:47:07.962Z,13.83
2023-05-23T12:49:34.542Z,13.85
2023-05-23T12:52:01.011Z,13.92
2023-05-23T12:54:27.426Z,13.66
2023-05-23T12:56:54.201Z,13.68
2023-05-23T12:59:20.653Z,13.71
2023-05-23T13:01:47.574Z,13.87
2023-05-23T13:04:14.286Z,14.00
2023-05-23T13:06:40.801Z,14.32
2023-05-23T13:09:07.300Z,14.24
2023-05-23T13:11:33.813Z,14.59
2023-05-23T13:14:00.259Z,14.41
2023-05-23T13:16:27.032Z,14.79
2023-05-23T13:18:53.788Z,14.93
2023-05-23T13:21:20.529Z,15.06
2023-05-23T13:23:47.247Z,14.96
2023-05-23T13:26:14.609Z,15.03
2023-05-23T13:28:41.161Z,14.96
2023-05-23T13:31:07.700Z,14.88
2023-05-23T13:33:34.309Z,15.08
2023-05-23T13:36:00.787Z,15.34
2023-05-23T13:38:27.713Z,15.51
2023-05-23T13:40:54.750Z,15.20
2023-05-23T13:43:22.339Z,15.31
2023-05-23T13:45:49.074Z,15.67
2023-05-23T13:48:15.654Z,16.01
2023-05-23T13:50:43.578Z,15.87
2023-05-23T13:53:15.069Z,15.62
2023-05-23T13:55:41.499Z,15.66
2023-05-23T13:58:08.135Z,15.53
2023-05-23T14:00:34.592Z,15.64
2023-05-23T14:03:01.229Z,15.45
2023-05-23T14:05:28.044Z,14.90
2023-05-23T14:07:54.744Z,14.80
2023-05-23T14:10:21.898Z,14.84
2023-05-23T14:12:48.400Z,15.23
2023-05-23T14:15:15.912Z,15.40
2023-05-23T14:17:42.424Z,14.93
2023-05-23T14:20:09.219Z,15.00
2023-05-23T14:22:35.770Z,15.23
2023-05-23T14:25:02.214Z,15.47
2023-05-23T14:27:28.814Z,15.49
2023-05-23T14:29:55.475Z,15.19
2023-05-23T14:32:22.308Z,15.21
2023-05-23T14:34:49.012Z,15.35
2023-05-23T14:37:15.475Z,15.40
2023-05-23T14:39:41.919Z,15.57
2023-05-23T14:42:08.358Z,15.88
2023-05-23T14:44:34.843Z,15.93
2023-05-23T14:47:05.845Z,16.13
2023-05-23T14:49:32.307Z,15.72
2023-05-23T14:51:59.263Z,15.39
2023-05-23T14:54:26.118Z,15.51
2023-05-23T14:56:53.538Z,15.30
2023-05-23T14:59:20.246Z,15.11
2023-05-23T15:01:46.990Z,14.84
2023-05-23T15:04:13.724Z,14.75
2023-05-23T15:06:40.314Z,14.53
2023-05-23T15:09:07.557Z,14.37
2023-05-23T15:11:38.608Z,14.48
2023-05-23T15:14:05.136Z,14.22
2023-05-23T15:16:33.201Z,14.21
2023-05-23T15:19:00.446Z,14.30
2023-05-23T15:21:29.000Z,14.44
2023-05-23T15:23:55.822Z,14.37
2023-05-23T15:26:22.557Z,14.63
2023-05-23T15:28:49.168Z,14.70
2023-05-23T15:31:15.608Z,14.51
2023-05-23T15:33:42.423Z,14.46
2023-05-23T15:36:09.029Z,14.24
2023-05-23T15:38:35.521Z,14.40
2023-05-23T15:41:03.118Z,14.24
2023-05-23T15:43:29.599Z,14.38
2023-05-23T15:45:56.225Z,14.46
2023-05-23T15:48:22.732Z,14.69
2023-05-23T15:50:49.197Z,14.67
2023-05-23T15:53:15.865Z,14.69
2023-05-23T15:55:42.801Z,14.77
2023-05-23T15:58:10.878Z,14.89
2023-05-23T16:00:37.490Z,15.13
2023-05-23T16:03:04.016Z,15.08
2023-05-23T16:05:30.648Z,15.11
2023-05-23T16:07:57.168Z,15.18
2023-05-23T16:10:24.910Z,15.32
2023-05-23T16:12:51.555Z,15.00
2023-05-23T16:15:18.118Z,15.06
2023-05-23T16:17:44.698Z,14.88
2023-05-23T16:20:11.661Z,14.70
2023-05-23T16:22:38.098Z,14.84
2023-05-23T16:25:06.714Z,14.93
2023-05-23T16:27:33.537Z,15.08
2023-05-23T16:30:00.009Z,15.14
2023-05-23T16:32:28.307Z,14.99
2023-05-23T16:34:55.012Z,14.89
2023-05-23T16:37:21.560Z,14.76
2023-05-23T16:39:48.020Z,14.95
2023-05-23T16:42:14.584Z,15.01
2023-05-23T16:44:41.686Z,15.12
2023-05-23T16:47:08.241Z,14.78
2023-05-23T16:49:34.750Z,14.80
2023-05-23T16:52:01.201Z,14.69
2023-05-23T16:54:27.727Z,14.39
2023-05-23T16:56:54.309Z,14.34
2023-05-23T16:59:21.331Z,14.55
2023-05-23T17:01:48.181Z,14.38
2023-05-23T17:04:14.651Z,14.58
2023-05-23T17:06:41.088Z,14.56
2023-05-23T17:09:08.296Z,14.38
2023-05-23T17:11:34.719Z,14.22
2023-05-23T17:14:01.322Z,14.28
2023-05-23T17:16:30.089Z,14.12
2023-05-23T17:18:56.842Z,14.11
2023-05-23T17:21:23.387Z,13.89
2023-05-23T17:23:50.068Z,13.96
2023-05-23T17:26:18.367Z,13.98
2023-05-23T17:28:46.707Z,13.77
2023-05-23T17:31:13.193Z,13.70
2023-05-23T17:33:39.710Z,13.74
2023-05-23T17:36:06.288Z,13.73
2023-05-23T17:38:32.799Z,13.53
2023-05-23T17:40:59.618Z,13.56
2023-05-23T17:43:26.162Z,13.42
2023-05-23T17:45:52.625Z,13.19
2023-05-23T17:48:19.132Z,13.22
2023-05-23T17:50:45.973Z,13.30
2023-05-23T17:53:14.507Z,13.21
2023-05-23T17:55:41.375Z,13.11
2023-05-23T17:58:07.872Z,13.09
2023-05-23T18:00:34.472Z,12.74
2023-05-23T18:03:01.705Z,12.63
2023-05-23T18:05:28.236Z,12.51
2023-05-23T18:07:54.951Z,12.45
2023-05-23T18:10:21.916Z,12.38
2023-05-23T18:12:48.391Z,12.40
2023-05-23T18:15:14.888Z,12.30
2023-05-23T18:17:41.815Z,12.30
2023-05-23T18:20:08.620Z,12.19
2023-05-23T18:22:35.308Z,12.10
2023-05-23T18:25:01.816Z,12.15
2023-05-23T18:27:28.309Z,12.03
2023-05-23T18:29:55.002Z,11.99
2023-05-23T18:32:21.800Z,11.91
2023-05-23T18:34:48.371Z,11.94
2023-05-23T18:37:14.966Z,11.82
2023-05-23T18:39:41.370Z,11.79
2023-05-23T18:42:07.955Z,11.79
2023-05-23T18:44:35.135Z,11.73
2023-05-23T18:47:02.673Z,11.67
2023-05-23T18:49:29.284Z,11.71
2023-05-23T18:51:55.932Z,11.76
2023-05-23T18:54:22.746Z,11.66
2023-05-23T18:56:49.620Z,11.54
2023-05-23T18:59:16.903Z,11.57
2023-05-23T19:01:43.513Z,11.38
2023-05-23T19:04:10.182Z,11.35
2023-05-23T19:06:36.838Z,11.33
2023-05-23T19:09:06.695Z,11.26
2023-05-23T19:11:33.180Z,11.23
2023-05-23T19:13:59.641Z,11.07
2023-05-23T19:16:26.201Z,10.97
2023-05-23T19:18:52.735Z,10.85
2023-05-23T19:21:19.234Z,10.73
2023-05-23T19:23:45.999Z,10.81
2023-05-23T19:26:13.548Z,10.93
2023-05-23T19:28:40.470Z,10.78
2023-05-23T19:31:07.867Z,10.73
2023-05-23T19:33:34.398Z,10.62
2023-05-23T19:36:01.340Z,10.54
2023-05-23T19:38:27.835Z,10.62
2023-05-23T19:40:54.504Z,10.43
2023-05-23T19:43:21.088Z,10.42
2023-05-23T19:45:48.006Z,10.35
2023-05-23T19:48:14.646Z,10.41
2023-05-23T19:50:43.474Z,10.33
2023-05-23T19:53:10.305Z,10.38
2023-05-23T19:55:36.762Z,10.29
2023-05-23T19:58:03.300Z,10.27
2023-05-23T20:00:29.798Z,10.30
2023-05-23T20:02:56.851Z,10.13
2023-05-23T20:05:23.624Z,10.06
2023-05-23T20:07:50.146Z,10.00
2023-05-23T20:10:16.710Z,9.98
2023-05-23T20:12:43.162Z,9.96
2023-05-23T20:15:09.955Z,10.06
2023-05-23T20:17:36.441Z,9.96
2023-05-23T20:20:04.102Z,9.83
2023-05-23T20:22:30.595Z,9.93
2023-05-23T20:24:57.025Z,9.83
2023-05-23T20:27:23.647Z,9.89
2023-05-23T20:29:51.126Z,9.76
2023-05-23T20:32:17.573Z,9.68
2023-05-23T20:34:44.172Z,9.66
2023-05-23T20:37:13.702Z,9.64
2023-05-23T20:39:43.761Z,9.66
2023-05-23T20:42:10.404Z,9.56
2023-05-23T20:44:38.093Z,9.54
2023-05-23T20:47:06.233Z,9.45
2023-05-23T20:49:37.379Z,9.55
2023-05-23T20:52:05.435Z,9.60
2023-05-23T20:54:35.150Z,9.53
2023-05-23T20:57:02.555Z,9.52
2023-05-23T20:59:30.434Z,9.56
2023-05-23T21:01:57.552Z,9.38
2023-05-23T21:04:24.302Z,9.36
2023-05-23T21:06:50.997Z,9.34
2023-05-23T21:09:17.590Z,9.45
2023-05-23T21:11:44.721Z,9.32
2023-05-23T21:14:11.232Z,9.28
2023-05-23T21:16:37.977Z,9.36
2023-05-23T21:19:04.582Z,9.27
2023-05-23T21:21:31.101Z,9.32
2023-05-23T21:23:57.485Z,9.24
2023-05-23T21:26:24.191Z,9.17
2023-05-23T21:28:50.646Z,9.20
2023-05-23T21:31:24.084Z,9.09
2023-05-23T21:33:56.403Z,9.19
2023-05-23T21:36:22.954Z,9.04
2023-05-23T21:38:49.407Z,9.02
2023-05-23T21:41:15.862Z,8.93
2023-05-23T21:43:43.033Z,8.93
2023-05-23T21:46:09.561Z,8.96
2023-05-23T21:48:36.098Z,8.94
2023-05-23T21:51:02.703Z,8.84
2023-05-23T21:53:29.416Z,8.69
2023-05-23T21:55:55.908Z,8.59
2023-05-23T21:58:22.392Z,8.66
2023-05-23T22:00:49.181Z,8.60
2023-05-23T22:03:15.932Z,8.49
2023-05-23T22:05:42.563Z,8.41
2023-05-23T22:08:13.202Z,8.39
2023-05-23T22:10:40.978Z,8.34
2023-05-23T22:13:09.485Z,8.42
2023-05-23T22:15:36.846Z,8.31
2023-05-23T22:18:07.428Z,8.01
2023-05-23T22:20:39.004Z,7.90
2023-05-23T22:23:06.192Z,7.86
2023-05-23T22:25:35.053Z,7.81
2023-05-23T22:28:01.796Z,7.73
2023-05-23T22:30:28.499Z,7.72
2023-05-23T22:32:57.718Z,7.64
2023-05-23T22:35:24.665Z,7.78
2023-05-23T22:37:51.067Z,7.78
2023-05-23T22:40:17.739Z,7.69
2023-05-23T22:42:44.194Z,7.63
2023-05-23T22:45:10.927Z,7.62
2023-05-23T22:47:37.567Z,7.60
2023-05-23T22:50:04.705Z,7.68
2023-05-23T22:52:31.421Z,7.60
2023-05-23T22:54:57.936Z,7.66
2023-05-23T22:57:24.428Z,7.49
2023-05-23T22:59:50.944Z,7.46
2023-05-23T23:02:17.445Z,7.40
2023-05-23T23:04:44.341Z,7.54
2023-05-23T23:07:11.350Z,7.47
2023-05-23T23:09:37.821Z,7.42
2023-05-23T23:12:04.397Z,7.33
2023-05-23T23:14:30.860Z,7.36
2023-05-23T23:16:58.163Z,7.34
2023-05-23T23:19:25.127Z,7.30
2023-05-23T23:21:51.793Z,7.27
2023-05-23T23:24:18.313Z,7.13
2023-05-23T23:26:44.816Z,7.32
2023-05-23T23:29:11.251Z,7.17
2023-05-23T23:31:37.734Z,7.18
2023-05-23T23:34:04.209Z,7.02
2023-05-23T23:36:30.834Z,6.88
2023-05-23T23:38:57.362Z,7.03
2023-05-23T23:41:23.850Z,6.99
2023-05-23T23:43:50.479Z,6.95
2023-05-23T23:46:18.665Z,6.83
2023-05-23T23:48:45.242Z,6.92
2023-05-23T23:51:12.759Z,6.98
2023-05-23T23:53:39.639Z,6.94
2023-05-23T23:56:06.129Z,6.98
2023-05-23T23:58:32.647Z,6.98
